Time;durP1;ratioP1;P1;durP2;ratioP2;P2;SDS_P1;SDS_P2;PMS_P1;PMS_P2;Temp;Humidity;BMP_temperature;BMP_pressure;BME280_temperature;BME280_humidity;BME280_pressure;Samples;Min_cycle;Max_cycle;Signal;HPM_P1;HPM_P2
2022/11/12 00:03:55;;;;;;;74.50;42.73;;;;;;;5.37;100.00;100571.03;3990268;87;21040;-85
2022/11/12 00:10:32;;;;;;;72.45;40.40;;;;;;;5.31;100.00;100576.90;3999720;87;21117;-85
2022/11/12 00:17:29;;;;;;;74.72;40.65;;;;;;;5.27;100.00;100582.12;3988941;87;21079;-85
2022/11/12 00:24:06;;;;;;;76.67;43.68;;;;;;;5.16;100.00;100598.35;3992103;87;21045;-85
2022/11/12 00:30:58;;;;;;;66.25;37.90;;;;;;;5.07;100.00;100581.70;3769498;91;21204;-85
2022/11/12 00:37:31;;;;;;;69.82;40.38;;;;;;;4.95;100.00;100574.61;3912821;90;21252;-85
2022/11/12 00:51:37;;;;;;;77.62;44.42;;;;;;;4.73;100.00;100580.13;3971692;88;21049;-85
2022/11/12 00:58:10;;;;;;;70.42;39.98;;;;;;;4.65;100.00;100587.59;3976351;88;21034;-85
2022/11/12 01:04:45;;;;;;;65.05;37.33;;;;;;;4.51;100.00;100585.97;4076843;86;22260;-85
2022/11/12 01:11:35;;;;;;;67.32;39.63;;;;;;;4.34;100.00;100593.27;4078107;86;21588;-85
2022/11/12 01:18:15;;;;;;;53.80;30.37;;;;;;;4.29;100.00;100584.43;4007313;89;21002;-85
2022/11/12 01:24:37;;;;;;;55.05;31.97;;;;;;;4.24;100.00;100590.73;3960483;88;21113;-85
2022/11/12 01:31:50;;;;;;;52.53;29.77;;;;;;;4.18;100.00;100598.66;3960025;88;21019;-85
2022/11/12 01:38:13;;;;;;;55.45;31.35;;;;;;;4.14;100.00;100596.30;3630551;96;21198;-85
2022/11/12 01:44:45;;;;;;;57.00;31.00;;;;;;;4.04;100.00;100595.08;3933491;88;21061;-86
2022/11/12 01:51:10;;;;;;;47.78;25.95;;;;;;;3.96;100.00;100595.73;4064780;86;21118;-86
2022/11/12 01:57:48;;;;;;;51.28;29.75;;;;;;;3.91;100.00;100599.08;4055894;86;21049;-85
2022/11/12 02:04:20;;;;;;;46.42;25.23;;;;;;;3.88;100.00;100595.60;4059599;86;21085;-85
2022/11/12 02:10:51;;;;;;;41.10;23.50;;;;;;;3.81;100.00;100593.79;4061351;86;21625;-85
2022/11/12 02:17:16;;;;;;;51.33;29.67;;;;;;;3.80;100.00;100594.36;4064564;86;21103;-85
2022/11/12 02:23:39;;;;;;;56.58;29.85;;;;;;;3.80;100.00;100601.67;4122553;86;21913;-85
2022/11/12 02:30:38;;;;;;;58.28;34.60;;;;;;;3.67;100.00;100598.31;4104300;86;20990;-85
2022/11/12 02:37:30;;;;;;;58.98;32.60;;;;;;;3.59;100.00;100595.70;4061867;86;21028;-85
2022/11/12 02:44:00;;;;;;;61.88;34.18;;;;;;;3.44;100.00;100596.45;4061631;86;21113;-85
2022/11/12 02:50:20;;;;;;;57.35;31.45;;;;;;;3.30;100.00;100600.41;4057152;86;21047;-86
2022/11/12 02:56:54;;;;;;;66.75;35.78;;;;;;;3.31;100.00;100594.43;4051595;88;21090;-85
2022/11/12 03:03:24;;;;;;;76.17;39.73;;;;;;;3.25;100.00;100585.58;4054638;88;21026;-85
2022/11/12 03:10:50;;;;;;;78.45;43.20;;;;;;;3.30;100.00;100596.35;4054559;88;20987;-85
2022/11/12 03:24:18;;;;;;;73.87;38.95;;;;;;;3.13;100.00;100585.19;3895106;90;21117;-85
2022/11/12 03:38:17;;;;;;;57.58;32.38;;;;;;;3.18;100.00;100594.03;3941144;89;21126;-85
2022/11/12 03:45:07;;;;;;;59.13;33.30;;;;;;;3.16;100.00;100592.16;4010072;87;21057;-85
2022/11/12 03:51:37;;;;;;;62.75;37.08;;;;;;;3.08;100.00;100586.05;4019426;86;21109;-86
2022/11/12 03:57:57;;;;;;;61.73;36.95;;;;;;;3.12;100.00;100590.31;4027777;86;21095;-86
2022/11/12 04:11:21;;;;;;;75.62;42.80;;;;;;;3.09;100.00;100589.00;3975309;88;21082;-85
2022/11/12 04:31:38;;;;;;;64.70;37.10;;;;;;;2.74;100.00;100585.86;3954428;85;95282;-86
2022/11/12 04:38:24;;;;;;;62.48;36.85;;;;;;;2.66;100.00;100591.31;4218847;84;21045;-86
2022/11/12 04:45:52;;;;;;;73.92;43.05;;;;;;;2.58;100.00;100588.44;4239176;83;21512;-85
2022/11/12 04:52:31;;;;;;;57.27;33.48;;;;;;;2.29;100.00;100586.23;4231320;83;21036;-86
2022/11/12 04:59:38;;;;;;;65.87;35.73;;;;;;;2.30;100.00;100578.41;4234499;82;21136;-86
2022/11/12 05:13:15;;;;;;;62.88;35.40;;;;;;;2.16;100.00;100591.73;4217984;83;21657;-86
2022/11/12 05:34:07;;;;;;;56.53;33.95;;;;;;;2.00;100.00;100578.09;3881262;90;21715;-85
2022/11/12 05:41:08;;;;;;;60.98;33.75;;;;;;;1.92;100.00;100586.77;3935795;88;21079;-85
2022/11/12 05:47:37;;;;;;;62.85;33.08;;;;;;;1.90;100.00;100586.23;4186847;84;21983;-85
2022/11/12 05:54:27;;;;;;;58.13;31.82;;;;;;;1.74;100.00;100596.07;4198396;82;21107;-85
2022/11/12 06:00:55;;;;;;;65.30;36.13;;;;;;;1.69;100.00;100598.26;4212661;83;20996;-85
2022/11/12 06:07:42;;;;;;;62.05;32.23;;;;;;;1.59;100.00;100605.86;4291951;81;21073;-85
2022/11/12 06:14:27;;;;;;;55.30;32.15;;;;;;;1.53;100.00;100608.86;4271743;81;21073;-85
2022/11/12 06:27:59;;;;;;;58.17;33.08;;;;;;;1.77;100.00;100605.75;4292248;81;20443;-86
2022/11/12 06:41:29;;;;;;;56.90;30.12;;;;;;;1.74;100.00;100627.91;4144035;84;21889;-84
2022/11/12 06:47:54;;;;;;;69.22;35.78;;;;;;;1.81;100.00;100631.66;4295774;81;21010;-84
2022/11/12 06:54:16;;;;;;;61.80;37.70;;;;;;;1.92;100.00;100636.73;4256147;81;21044;-85
2022/11/12 07:00:37;;;;;;;74.58;42.45;;;;;;;2.13;100.00;100642.27;4389451;81;21002;-84
2022/11/12 07:07:04;;;;;;;73.12;40.78;;;;;;;2.30;100.00;100631.88;4280907;81;21012;-84
2022/11/12 07:13:49;;;;;;;73.10;41.55;;;;;;;2.52;100.00;100639.58;4287777;81;21036;-84
2022/11/12 07:27:30;;;;;;;73.90;41.20;;;;;;;3.28;100.00;100654.55;4232923;82;21071;-85
2022/11/12 07:41:19;;;;;;;;;;;;;;;4.25;100.00;100649.27;4224582;82;21054;-84
2022/11/12 07:54:50;;;;;;;47.98;30.95;;;;;;;5.24;100.00;100646.53;4168275;83;21077;-86
2022/11/12 08:08:32;;;;;;;45.55;29.20;;;;;;;6.58;100.00;100635.77;4154476;85;21637;-85
2022/11/12 08:15:44;;;;;;;48.23;28.15;;;;;;;7.22;100.00;100636.58;4141555;84;21116;-85
2022/11/12 08:22:09;;;;;;;48.40;26.93;;;;;;;7.86;100.00;100651.43;4149043;84;21074;-85
2022/11/12 08:28:38;;;;;;;43.65;26.52;;;;;;;8.66;100.00;100648.95;4153242;84;21066;-86
2022/11/12 08:35:46;;;;;;;42.03;25.30;;;;;;;9.41;100.00;100648.33;4148036;84;21524;-85
2022/11/12 08:42:50;;;;;;;42.35;25.35;;;;;;;9.99;100.00;100648.92;4149003;85;21110;-86
2022/11/12 08:49:16;;;;;;;42.95;25.35;;;;;;;10.67;100.00;100658.02;4143929;84;21050;-87
2022/11/12 08:56:40;;;;;;;42.00;23.27;;;;;;;11.41;100.00;100651.06;4182351;83;21078;-87
2022/11/12 09:03:44;;;;;;;34.45;20.82;;;;;;;11.98;100.00;100646.33;4209282;83;21083;-86
2022/11/12 09:10:11;;;;;;;28.50;18.02;;;;;;;12.72;100.00;100661.70;4159556;83;21066;-86
2022/11/12 09:17:14;;;;;;;35.38;20.90;;;;;;;13.22;98.35;100670.78;4144559;84;20973;-86
2022/11/12 09:24:29;;;;;;;32.28;18.65;;;;;;;13.76;98.58;100658.88;4140409;86;22014;-86
2022/11/12 09:53:16;;;;;;;24.57;16.73;;;;;;;14.79;92.66;100663.38;4215988;83;21013;-87
2022/11/12 10:14:07;;;;;;;21.85;14.80;;;;;;;15.49;88.30;100642.67;4022126;88;21602;-86
2022/11/12 10:34:43;;;;;;;25.82;14.25;;;;;;;15.83;85.64;100636.17;3964988;89;21165;-86
2022/11/12 10:41:39;;;;;;;25.53;14.97;;;;;;;15.50;82.26;100638.16;3919649;89;21187;-86
2022/11/12 10:48:26;;;;;;;22.17;14.40;;;;;;;15.29;83.56;100636.96;3801695;92;21699;-86
2022/11/12 11:02:56;;;;;;;22.15;15.05;;;;;;;14.85;80.21;100625.50;3976945;89;21048;-86
2022/11/12 11:09:34;;;;;;;25.10;14.43;;;;;;;14.57;80.87;100621.36;3931341;89;21105;-88
2022/11/12 11:16:30;;;;;;;23.25;13.60;;;;;;;14.56;80.97;100621.16;4017928;86;21050;-86
2022/11/12 11:23:15;;;;;;;24.27;13.80;;;;;;;14.35;80.53;100610.48;4219875;82;21064;-85
2022/11/12 11:30:24;;;;;;;20.90;11.68;;;;;;;14.06;80.29;100601.36;4294550;81;21059;-86
2022/11/12 11:37:45;;;;;;;19.57;11.93;;;;;;;13.94;79.93;100600.89;4369728;81;21616;-86
2022/11/12 11:44:46;;;;;;;21.68;12.47;;;;;;;13.75;80.57;100589.82;4408653;81;21068;-85
2022/11/12 12:06:28;;;;;;;24.10;13.58;;;;;;;13.45;79.73;100568.06;4358634;79;21030;-85
2022/11/12 12:20:54;;;;;;;17.65;10.72;;;;;;;13.23;79.92;100569.28;4327692;81;21068;-84
2022/11/12 13:02:22;;;;;;;13.88;7.30;;;;;;;12.77;79.19;100558.42;4377945;80;21001;-86
2022/11/12 13:38:21;;;;;;;14.63;6.50;;;;;;;12.27;79.94;100559.56;4103325;85;21031;-86
2022/11/12 13:44:41;;;;;;;17.00;6.95;;;;;;;12.16;80.29;100563.38;4054888;85;21602;-86
2022/11/12 13:52:03;;;;;;;13.72;6.90;;;;;;;12.15;80.22;100558.23;4356551;80;21096;-86
2022/11/12 14:13:04;;;;;;;16.65;9.68;;;;;;;11.85;80.45;100552.24;4360346;82;21001;-84
2022/11/12 14:19:57;;;;;;;22.42;9.18;;;;;;;11.73;80.41;100548.13;4356352;82;20973;-85
2022/11/12 14:33:37;;;;;;;14.28;7.97;;;;;;;11.42;80.80;100542.97;4216770;83;21116;-87
2022/11/12 14:40:05;;;;;;;16.87;7.95;;;;;;;11.17;81.18;100543.54;4266300;80;21080;-87
2022/11/12 14:46:56;;;;;;;21.60;8.35;;;;;;;11.00;81.35;100540.45;4334202;81;21057;-86
2022/11/12 14:54:05;;;;;;;18.20;8.30;;;;;;;10.84;81.62;100539.50;4363623;81;21056;-86
2022/11/12 15:14:52;;;;;;;18.90;9.93;;;;;;;10.14;82.51;100536.98;4279754;81;21042;-86
2022/11/12 15:21:31;;;;;;;20.62;11.48;;;;;;;9.88;82.65;100535.55;4323167;81;21094;-87
2022/11/12 15:28:46;;;;;;;22.80;11.05;;;;;;;9.62;83.35;100540.38;4346708;81;21029;-87
2022/11/12 15:43:07;;;;;;;34.08;15.43;;;;;;;9.14;83.97;100538.88;4170324;84;21578;-86
2022/11/12 15:50:08;;;;;;;32.85;14.18;;;;;;;8.89;84.36;100549.89;4184510;84;21174;-86
2022/11/12 16:04:34;;;;;;;36.28;16.93;;;;;;;8.26;85.11;100557.48;4097295;85;21981;-86
2022/11/12 16:32:49;;;;;;;64.37;34.63;;;;;;;7.09;86.81;100572.69;4330979;80;21044;-86
2022/11/12 16:39:34;;;;;;;65.63;35.60;;;;;;;6.84;87.29;100572.00;4330165;81;21057;-86
2022/11/12 16:53:31;;;;;;;64.15;34.75;;;;;;;6.47;88.21;100573.78;4333440;81;21425;-86
2022/11/12 16:59:52;;;;;;;60.15;32.28;;;;;;;6.30;88.81;100565.73;4332123;81;21017;-86
2022/11/12 17:13:22;;;;;;;44.98;25.23;;;;;;;5.95;89.26;100575.28;4362802;81;21072;-86
2022/11/12 17:20:01;;;;;;;56.20;30.02;;;;;;;5.73;89.53;100581.41;4353081;81;21029;-85
2022/11/12 17:26:39;;;;;;;91.17;49.50;;;;;;;5.47;88.80;100583.06;4332285;81;21613;-85
2022/11/12 17:33:49;;;;;;;104.32;56.92;;;;;;;5.08;89.50;100577.33;4320583;81;21167;-86
2022/11/12 17:40:15;;;;;;;144.50;74.58;;;;;;;4.99;90.40;100586.47;4326825;81;21041;-86
2022/11/12 17:46:46;;;;;;;139.53;75.67;;;;;;;4.96;91.10;100587.88;4260638;83;21053;-85
2022/11/12 17:53:12;;;;;;;121.67;67.95;;;;;;;4.84;90.91;100599.20;4328034;81;21073;-85
2022/11/12 18:00:02;;;;;;;89.65;47.90;;;;;;;4.62;91.00;100590.91;4329810;81;21018;-87
2022/11/12 18:07:10;;;;;;;105.50;58.75;;;;;;;4.36;89.86;100602.47;4409865;81;20981;-85
2022/11/12 18:13:49;;;;;;;88.75;50.12;;;;;;;4.15;91.62;100597.90;4331955;81;22000;-85
2022/11/12 18:20:21;;;;;;;75.00;42.80;;;;;;;4.11;92.02;100602.31;4340551;81;21826;-85
2022/11/12 18:27:12;;;;;;;69.42;40.67;;;;;;;4.01;92.35;100603.02;4339331;81;20974;-86
2022/11/12 18:34:05;;;;;;;65.78;35.65;;;;;;;3.93;92.55;100603.09;4380237;80;21006;-86
2022/11/12 18:40:36;;;;;;;69.32;35.58;;;;;;;3.78;92.88;100603.86;4352172;81;21053;-85
2022/11/12 18:47:54;;;;;;;61.30;34.80;;;;;;;3.74;93.55;100625.33;4349768;81;21084;-86
2022/11/12 18:54:15;;;;;;;70.30;39.42;;;;;;;3.82;95.15;100637.41;4301600;81;21029;-85
2022/11/12 19:00:41;;;;;;;87.02;39.35;;;;;;;3.92;95.61;100642.67;4346193;80;21049;-86
2022/11/12 19:07:01;;;;;;;84.03;41.45;;;;;;;4.07;96.66;100643.27;4334860;81;21005;-86
2022/11/12 19:13:46;;;;;;;74.53;38.75;;;;;;;4.24;97.09;100649.02;4383018;81;21017;-86
2022/11/12 19:34:28;;;;;;;87.92;44.18;;;;;;;4.01;96.46;100647.16;4335407;82;21959;-85
2022/11/12 19:40:54;;;;;;;85.22;43.02;;;;;;;3.90;97.11;100662.50;4339454;81;21168;-86
2022/11/12 19:48:01;;;;;;;94.53;48.70;;;;;;;3.88;97.84;100655.20;4372905;81;21032;-86
2022/11/12 19:54:35;;;;;;;102.78;53.15;;;;;;;4.00;99.02;100657.75;4209443;84;21013;-85
2022/11/12 20:01:23;;;;;;;99.47;53.42;;;;;;;4.13;99.60;100667.06;4114358;86;21005;-85
2022/11/12 20:15:15;;;;;;;95.32;47.83;;;;;;;4.54;100.00;100679.72;4208247;82;20993;-85
2022/11/12 20:21:56;;;;;;;97.00;45.33;;;;;;;4.78;100.00;100685.05;4212721;84;21018;-86
2022/11/12 20:28:19;;;;;;;98.95;48.70;;;;;;;4.94;100.00;100691.84;4242597;82;21885;-86
2022/11/12 20:34:51;;;;;;;101.27;51.02;;;;;;;5.09;100.00;100684.79;4329980;81;21522;-85
2022/11/12 20:49:50;;;;;;;84.20;42.45;;;;;;;5.35;100.00;100679.18;4331311;81;21017;-85
2022/11/12 20:56:28;;;;;;;91.87;43.78;;;;;;;5.45;100.00;100685.77;4409296;81;20994;-86
2022/11/12 21:02:59;;;;;;;87.78;41.05;;;;;;;5.57;100.00;100687.45;4160795;85;21067;-88
2022/11/12 21:10:32;;;;;;;78.02;39.55;;;;;;;5.66;100.00;100682.92;4177836;85;21819;-86
2022/11/12 21:17:00;;;;;;;86.47;39.20;;;;;;;5.72;100.00;100680.89;4171484;84;21062;-85
2022/11/12 21:23:57;;;;;;;70.75;33.98;;;;;;;5.79;100.00;100686.20;4225388;83;21031;-86
2022/11/12 21:30:23;;;;;;;82.05;35.50;;;;;;;5.84;100.00;100677.95;4210480;83;21005;-85
2022/11/12 21:36:52;;;;;;;62.93;26.73;;;;;;;5.89;100.00;100668.88;4235346;82;20995;-87
2022/11/12 21:43:18;;;;;;;73.25;33.30;;;;;;;5.93;100.00;100668.55;4256379;82;21201;-85
2022/11/12 21:57:16;;;;;;;67.90;30.83;;;;;;;6.03;100.00;100666.41;4364507;81;21207;-86
2022/11/12 22:04:17;;;;;;;69.47;30.55;;;;;;;6.06;100.00;100663.08;4293605;83;22030;-86
2022/11/12 22:18:04;;;;;;;81.60;36.45;;;;;;;6.14;100.00;100661.00;4348794;82;25370;-86
2022/11/12 22:24:52;;;;;;;77.33;34.47;;;;;;;6.17;100.00;100644.08;4314617;80;21048;-86
2022/11/12 22:32:00;;;;;;;82.92;35.08;;;;;;;6.22;100.00;100658.92;4349763;80;21056;-86
2022/11/12 22:38:26;;;;;;;79.55;36.40;;;;;;;6.27;100.00;100658.81;4315718;80;21029;-86
2022/11/12 22:45:37;;;;;;;76.03;34.43;;;;;;;6.32;100.00;100654.63;4341874;80;21072;-86
2022/11/12 23:06:20;;;;;;;72.92;34.10;;;;;;;6.37;100.00;100641.47;4345227;82;21808;-86
2022/11/12 23:13:38;;;;;;;66.22;31.57;;;;;;;6.27;100.00;100633.52;4347554;81;21036;-86
2022/11/12 23:20:34;;;;;;;68.85;31.15;;;;;;;6.29;100.00;100628.59;4349472;82;20968;-86
2022/11/12 23:27:23;;;;;;;72.65;33.05;;;;;;;6.20;100.00;100631.80;4414697;80;20985;-86
2022/11/12 23:41:01;;;;;;;68.78;31.55;;;;;;;6.19;100.00;100625.55;4349439;82;20977;-86
2022/11/12 23:47:42;;;;;;;71.95;31.62;;;;;;;6.19;100.00;100615.22;4303515;80;21271;-86
